sensor_id;sensor_type;location;lat;lon;timestamp;P1;durP1;ratioP1;P2;durP2;ratioP2
70312;SDS011;57723;51.698;5.344;2023-07-31T00:01:00;7.70;;;2.10;;
70312;SDS011;57723;51.698;5.344;2023-07-31T00:03:25;7.83;;;2.10;;
70312;SDS011;57723;51.698;5.344;2023-07-31T00:05:53;8.15;;;2.30;;
70312;SDS011;57723;51.698;5.344;2023-07-31T00:08:18;5.33;;;2.20;;
70312;SDS011;57723;51.698;5.344;2023-07-31T00:10:44;6.50;;;2.20;;
70312;SDS011;57723;51.698;5.344;2023-07-31T00:13:15;7.70;;;2.17;;
70312;SDS011;57723;51.698;5.344;2023-07-31T00:15:40;7.47;;;2.45;;
70312;SDS011;57723;51.698;5.344;2023-07-31T00:18:05;6.90;;;2.67;;
70312;SDS011;57723;51.698;5.344;2023-07-31T00:20:31;7.40;;;2.22;;
70312;SDS011;57723;51.698;5.344;2023-07-31T00:22:56;7.03;;;2.53;;
70312;SDS011;57723;51.698;5.344;2023-07-31T00:25:25;7.50;;;2.20;;
70312;SDS011;57723;51.698;5.344;2023-07-31T00:27:50;6.78;;;2.38;;
70312;SDS011;57723;51.698;5.344;2023-07-31T00:30:16;7.63;;;2.50;;
70312;SDS011;57723;51.698;5.344;2023-07-31T00:32:41;7.50;;;2.50;;
70312;SDS011;57723;51.698;5.344;2023-07-31T00:35:12;8.55;;;2.63;;
70312;SDS011;57723;51.698;5.344;2023-07-31T00:37:37;5.57;;;2.60;;
70312;SDS011;57723;51.698;5.344;2023-07-31T00:40:03;8.03;;;2.50;;
70312;SDS011;57723;51.698;5.344;2023-07-31T00:42:28;7.63;;;2.53;;
70312;SDS011;57723;51.698;5.344;2023-07-31T00:44:56;6.40;;;2.23;;
70312;SDS011;57723;51.698;5.344;2023-07-31T00:47:25;5.93;;;2.40;;
70312;SDS011;57723;51.698;5.344;2023-07-31T00:49:51;9.38;;;2.42;;
70312;SDS011;57723;51.698;5.344;2023-07-31T00:52:16;9.52;;;2.72;;
70312;SDS011;57723;51.698;5.344;2023-07-31T00:54:42;8.13;;;2.70;;
70312;SDS011;57723;51.698;5.344;2023-07-31T00:57:07;10.57;;;2.70;;
70312;SDS011;57723;51.698;5.344;2023-07-31T00:59:35;8.45;;;2.60;;
70312;SDS011;57723;51.698;5.344;2023-07-31T01:02:01;9.60;;;2.80;;
70312;SDS011;57723;51.698;5.344;2023-07-31T01:04:26;7.00;;;2.70;;
70312;SDS011;57723;51.698;5.344;2023-07-31T01:07:02;7.75;;;2.85;;
70312;SDS011;57723;51.698;5.344;2023-07-31T01:12:15;7.83;;;2.70;;
70312;SDS011;57723;51.698;5.344;2023-07-31T01:14:51;7.40;;;2.63;;
70312;SDS011;57723;51.698;5.344;2023-07-31T01:17:17;6.32;;;2.47;;
70312;SDS011;57723;51.698;5.344;2023-07-31T01:19:42;7.03;;;2.77;;
70312;SDS011;57723;51.698;5.344;2023-07-31T01:27:37;6.68;;;2.28;;
70312;SDS011;57723;51.698;5.344;2023-07-31T01:32:35;8.57;;;3.10;;
70312;SDS011;57723;51.698;5.344;2023-07-31T01:35:01;5.90;;;2.47;;
70312;SDS011;57723;51.698;5.344;2023-07-31T01:37:32;7.37;;;2.57;;
70312;SDS011;57723;51.698;5.344;2023-07-31T01:39:58;8.98;;;2.45;;
70312;SDS011;57723;51.698;5.344;2023-07-31T01:42:23;5.87;;;2.57;;
70312;SDS011;57723;51.698;5.344;2023-07-31T01:44:48;8.90;;;2.90;;
70312;SDS011;57723;51.698;5.344;2023-07-31T01:47:13;7.37;;;2.50;;
70312;SDS011;57723;51.698;5.344;2023-07-31T01:49:39;6.77;;;2.60;;
70312;SDS011;57723;51.698;5.344;2023-07-31T01:52:04;7.28;;;2.78;;
70312;SDS011;57723;51.698;5.344;2023-07-31T01:54:30;5.20;;;2.37;;
70312;SDS011;57723;51.698;5.344;2023-07-31T01:56:56;7.78;;;2.85;;
70312;SDS011;57723;51.698;5.344;2023-07-31T01:59:21;6.37;;;2.70;;
70312;SDS011;57723;51.698;5.344;2023-07-31T02:01:46;7.20;;;2.60;;
70312;SDS011;57723;51.698;5.344;2023-07-31T02:04:12;6.87;;;2.53;;
70312;SDS011;57723;51.698;5.344;2023-07-31T02:06:37;6.20;;;2.60;;
70312;SDS011;57723;51.698;5.344;2023-07-31T02:09:03;6.28;;;2.33;;
70312;SDS011;57723;51.698;5.344;2023-07-31T02:11:28;7.70;;;2.90;;
70312;SDS011;57723;51.698;5.344;2023-07-31T02:13:54;7.07;;;2.70;;
70312;SDS011;57723;51.698;5.344;2023-07-31T02:16:19;9.07;;;3.20;;
70312;SDS011;57723;51.698;5.344;2023-07-31T02:18:47;5.70;;;2.43;;
70312;SDS011;57723;51.698;5.344;2023-07-31T02:21:13;5.93;;;2.20;;
70312;SDS011;57723;51.698;5.344;2023-07-31T02:23:38;6.87;;;2.70;;
70312;SDS011;57723;51.698;5.344;2023-07-31T02:26:03;6.23;;;2.40;;
70312;SDS011;57723;51.698;5.344;2023-07-31T02:28:31;6.38;;;3.30;;
70312;SDS011;57723;51.698;5.344;2023-07-31T02:30:58;7.27;;;2.60;;
70312;SDS011;57723;51.698;5.344;2023-07-31T02:33:24;8.18;;;2.60;;
70312;SDS011;57723;51.698;5.344;2023-07-31T02:35:49;5.40;;;2.50;;
70312;SDS011;57723;51.698;5.344;2023-07-31T02:38:17;7.40;;;2.42;;
70312;SDS011;57723;51.698;5.344;2023-07-31T02:40:43;7.10;;;2.77;;
70312;SDS011;57723;51.698;5.344;2023-07-31T02:43:08;7.73;;;2.80;;
70312;SDS011;57723;51.698;5.344;2023-07-31T02:45:43;7.35;;;2.42;;
70312;SDS011;57723;51.698;5.344;2023-07-31T02:48:09;6.82;;;2.80;;
70312;SDS011;57723;51.698;5.344;2023-07-31T02:50:34;6.73;;;2.60;;
70312;SDS011;57723;51.698;5.344;2023-07-31T02:52:59;7.10;;;2.47;;
70312;SDS011;57723;51.698;5.344;2023-07-31T02:55:25;5.87;;;2.93;;
70312;SDS011;57723;51.698;5.344;2023-07-31T02:57:50;6.20;;;2.50;;
70312;SDS011;57723;51.698;5.344;2023-07-31T03:00:17;6.07;;;2.42;;
70312;SDS011;57723;51.698;5.344;2023-07-31T03:02:42;9.67;;;2.47;;
70312;SDS011;57723;51.698;5.344;2023-07-31T03:05:07;5.17;;;2.27;;
70312;SDS011;57723;51.698;5.344;2023-07-31T03:07:33;6.30;;;2.53;;
70312;SDS011;57723;51.698;5.344;2023-07-31T03:09:58;5.75;;;2.45;;
70312;SDS011;57723;51.698;5.344;2023-07-31T03:12:23;7.77;;;2.50;;
70312;SDS011;57723;51.698;5.344;2023-07-31T03:14:49;6.43;;;2.40;;
70312;SDS011;57723;51.698;5.344;2023-07-31T03:17:14;8.33;;;2.60;;
70312;SDS011;57723;51.698;5.344;2023-07-31T03:19:40;6.43;;;2.67;;
70312;SDS011;57723;51.698;5.344;2023-07-31T03:22:05;8.43;;;2.95;;
70312;SDS011;57723;51.698;5.344;2023-07-31T03:24:31;5.60;;;2.40;;
70312;SDS011;57723;51.698;5.344;2023-07-31T03:26:56;7.60;;;2.67;;
70312;SDS011;57723;51.698;5.344;2023-07-31T03:29:21;6.10;;;2.40;;
70312;SDS011;57723;51.698;5.344;2023-07-31T03:31:49;5.83;;;2.40;;
70312;SDS011;57723;51.698;5.344;2023-07-31T03:34:15;7.43;;;2.65;;
70312;SDS011;57723;51.698;5.344;2023-07-31T03:36:40;5.47;;;2.30;;
70312;SDS011;57723;51.698;5.344;2023-07-31T03:39:09;6.25;;;2.72;;
70312;SDS011;57723;51.698;5.344;2023-07-31T03:41:37;6.60;;;2.70;;
70312;SDS011;57723;51.698;5.344;2023-07-31T03:44:05;10.67;;;3.20;;
70312;SDS011;57723;51.698;5.344;2023-07-31T03:46:30;8.10;;;2.73;;
70312;SDS011;57723;51.698;5.344;2023-07-31T03:48:56;7.63;;;2.50;;
70312;SDS011;57723;51.698;5.344;2023-07-31T03:51:21;7.10;;;2.73;;
70312;SDS011;57723;51.698;5.344;2023-07-31T03:53:47;5.63;;;2.47;;
70312;SDS011;57723;51.698;5.344;2023-07-31T03:56:15;9.47;;;2.70;;
70312;SDS011;57723;51.698;5.344;2023-07-31T03:58:43;7.75;;;2.80;;
70312;SDS011;57723;51.698;5.344;2023-07-31T04:01:17;9.07;;;2.72;;
70312;SDS011;57723;51.698;5.344;2023-07-31T04:03:44;8.80;;;2.60;;
70312;SDS011;57723;51.698;5.344;2023-07-31T04:06:09;8.17;;;2.60;;
70312;SDS011;57723;51.698;5.344;2023-07-31T04:08:35;6.37;;;2.43;;
70312;SDS011;57723;51.698;5.344;2023-07-31T04:11:02;8.45;;;2.72;;
70312;SDS011;57723;51.698;5.344;2023-07-31T04:13:28;7.03;;;3.00;;
70312;SDS011;57723;51.698;5.344;2023-07-31T04:15:54;7.72;;;2.60;;
70312;SDS011;57723;51.698;5.344;2023-07-31T04:18:19;6.90;;;2.67;;
70312;SDS011;57723;51.698;5.344;2023-07-31T04:20:45;9.57;;;3.08;;
70312;SDS011;57723;51.698;5.344;2023-07-31T04:23:10;6.40;;;2.60;;
70312;SDS011;57723;51.698;5.344;2023-07-31T04:25:36;5.53;;;2.28;;
70312;SDS011;57723;51.698;5.344;2023-07-31T04:28:02;8.70;;;2.67;;
70312;SDS011;57723;51.698;5.344;2023-07-31T04:30:27;7.00;;;2.53;;
70312;SDS011;57723;51.698;5.344;2023-07-31T04:32:55;7.43;;;2.63;;
70312;SDS011;57723;51.698;5.344;2023-07-31T04:35:21;9.18;;;2.20;;
70312;SDS011;57723;51.698;5.344;2023-07-31T04:37:46;7.93;;;2.57;;
70312;SDS011;57723;51.698;5.344;2023-07-31T04:40:14;8.07;;;2.60;;
70312;SDS011;57723;51.698;5.344;2023-07-31T04:42:39;7.10;;;2.70;;
70312;SDS011;57723;51.698;5.344;2023-07-31T04:45:12;8.00;;;3.00;;
70312;SDS011;57723;51.698;5.344;2023-07-31T04:47:37;7.07;;;2.45;;
70312;SDS011;57723;51.698;5.344;2023-07-31T04:50:03;6.07;;;2.43;;
70312;SDS011;57723;51.698;5.344;2023-07-31T04:52:28;7.65;;;2.50;;
70312;SDS011;57723;51.698;5.344;2023-07-31T04:54:59;6.15;;;2.70;;
70312;SDS011;57723;51.698;5.344;2023-07-31T04:57:24;7.77;;;2.67;;
70312;SDS011;57723;51.698;5.344;2023-07-31T04:59:55;5.57;;;2.33;;
70312;SDS011;57723;51.698;5.344;2023-07-31T05:02:21;7.87;;;2.87;;
70312;SDS011;57723;51.698;5.344;2023-07-31T05:04:46;7.00;;;2.63;;
70312;SDS011;57723;51.698;5.344;2023-07-31T05:07:17;6.53;;;2.60;;
70312;SDS011;57723;51.698;5.344;2023-07-31T05:09:45;7.50;;;2.60;;
70312;SDS011;57723;51.698;5.344;2023-07-31T05:12:10;8.00;;;2.78;;
70312;SDS011;57723;51.698;5.344;2023-07-31T05:14:36;8.13;;;3.37;;
70312;SDS011;57723;51.698;5.344;2023-07-31T05:17:01;10.67;;;4.73;;
70312;SDS011;57723;51.698;5.344;2023-07-31T05:19:27;9.60;;;4.10;;
70312;SDS011;57723;51.698;5.344;2023-07-31T05:21:52;8.63;;;5.27;;
70312;SDS011;57723;51.698;5.344;2023-07-31T05:24:17;10.07;;;5.63;;
70312;SDS011;57723;51.698;5.344;2023-07-31T05:26:43;10.33;;;5.13;;
70312;SDS011;57723;51.698;5.344;2023-07-31T05:29:08;10.30;;;5.70;;
70312;SDS011;57723;51.698;5.344;2023-07-31T05:31:34;8.25;;;5.53;;
70312;SDS011;57723;51.698;5.344;2023-07-31T05:33:59;8.63;;;5.20;;
70312;SDS011;57723;51.698;5.344;2023-07-31T05:36:24;7.80;;;5.30;;
70312;SDS011;57723;51.698;5.344;2023-07-31T05:38:53;7.75;;;5.15;;
70312;SDS011;57723;51.698;5.344;2023-07-31T05:41:18;7.53;;;5.17;;
70312;SDS011;57723;51.698;5.344;2023-07-31T05:43:43;7.00;;;4.83;;
70312;SDS011;57723;51.698;5.344;2023-07-31T05:46:09;7.67;;;5.40;;
70312;SDS011;57723;51.698;5.344;2023-07-31T05:48:34;8.85;;;5.25;;
70312;SDS011;57723;51.698;5.344;2023-07-31T05:51:00;8.60;;;5.17;;
70312;SDS011;57723;51.698;5.344;2023-07-31T05:53:25;9.63;;;5.07;;
70312;SDS011;57723;51.698;5.344;2023-07-31T05:55:51;6.67;;;5.00;;
70312;SDS011;57723;51.698;5.344;2023-07-31T05:58:16;8.90;;;5.07;;
70312;SDS011;57723;51.698;5.344;2023-07-31T06:00:41;8.73;;;5.20;;
70312;SDS011;57723;51.698;5.344;2023-07-31T06:03:07;8.23;;;5.20;;
70312;SDS011;57723;51.698;5.344;2023-07-31T06:05:32;8.07;;;5.40;;
70312;SDS011;57723;51.698;5.344;2023-07-31T06:07:58;6.78;;;4.43;;
70312;SDS011;57723;51.698;5.344;2023-07-31T06:10:26;6.77;;;5.13;;
70312;SDS011;57723;51.698;5.344;2023-07-31T06:12:52;7.72;;;5.25;;
70312;SDS011;57723;51.698;5.344;2023-07-31T06:15:17;9.60;;;5.10;;
70312;SDS011;57723;51.698;5.344;2023-07-31T06:17:44;8.75;;;4.93;;
70312;SDS011;57723;51.698;5.344;2023-07-31T06:20:10;8.30;;;5.22;;
70312;SDS011;57723;51.698;5.344;2023-07-31T06:22:36;8.13;;;4.63;;
70312;SDS011;57723;51.698;5.344;2023-07-31T06:25:01;6.95;;;4.90;;
70312;SDS011;57723;51.698;5.344;2023-07-31T06:27:27;8.30;;;5.47;;
70312;SDS011;57723;51.698;5.344;2023-07-31T06:29:52;5.88;;;5.00;;
70312;SDS011;57723;51.698;5.344;2023-07-31T06:32:21;5.73;;;4.53;;
70312;SDS011;57723;51.698;5.344;2023-07-31T06:34:46;5.57;;;4.68;;
70312;SDS011;57723;51.698;5.344;2023-07-31T06:37:12;5.80;;;4.37;;
70312;SDS011;57723;51.698;5.344;2023-07-31T06:39:38;5.75;;;4.40;;
70312;SDS011;57723;51.698;5.344;2023-07-31T06:42:07;5.67;;;4.40;;
70312;SDS011;57723;51.698;5.344;2023-07-31T06:44:35;6.13;;;4.70;;
70312;SDS011;57723;51.698;5.344;2023-07-31T06:47:01;6.78;;;5.20;;
70312;SDS011;57723;51.698;5.344;2023-07-31T06:49:29;12.30;;;6.47;;
70312;SDS011;57723;51.698;5.344;2023-07-31T06:51:54;14.05;;;6.35;;
70312;SDS011;57723;51.698;5.344;2023-07-31T06:54:20;13.43;;;6.03;;
70312;SDS011;57723;51.698;5.344;2023-07-31T06:56:48;13.00;;;5.72;;
70312;SDS011;57723;51.698;5.344;2023-07-31T06:59:14;9.17;;;5.40;;
70312;SDS011;57723;51.698;5.344;2023-07-31T07:01:39;9.17;;;5.20;;
70312;SDS011;57723;51.698;5.344;2023-07-31T07:04:05;8.13;;;5.47;;
70312;SDS011;57723;51.698;5.344;2023-07-31T07:06:30;7.00;;;4.73;;
70312;SDS011;57723;51.698;5.344;2023-07-31T07:08:57;8.53;;;4.87;;
70312;SDS011;57723;51.698;5.344;2023-07-31T07:11:23;8.27;;;5.20;;
70312;SDS011;57723;51.698;5.344;2023-07-31T07:13:48;10.23;;;5.03;;
70312;SDS011;57723;51.698;5.344;2023-07-31T07:16:14;6.82;;;4.13;;
70312;SDS011;57723;51.698;5.344;2023-07-31T07:18:39;7.10;;;4.53;;
70312;SDS011;57723;51.698;5.344;2023-07-31T07:21:05;6.40;;;4.63;;
70312;SDS011;57723;51.698;5.344;2023-07-31T07:23:30;8.33;;;4.53;;
70312;SDS011;57723;51.698;5.344;2023-07-31T07:25:55;8.30;;;4.43;;
70312;SDS011;57723;51.698;5.344;2023-07-31T07:28:21;5.47;;;4.40;;
70312;SDS011;57723;51.698;5.344;2023-07-31T07:30:54;5.35;;;4.18;;
70312;SDS011;57723;51.698;5.344;2023-07-31T07:33:19;7.65;;;4.38;;
70312;SDS011;57723;51.698;5.344;2023-07-31T07:35:44;7.33;;;4.20;;
70312;SDS011;57723;51.698;5.344;2023-07-31T07:38:10;4.70;;;4.30;;
70312;SDS011;57723;51.698;5.344;2023-07-31T07:40:39;6.83;;;4.43;;
70312;SDS011;57723;51.698;5.344;2023-07-31T07:43:04;6.70;;;4.15;;
70312;SDS011;57723;51.698;5.344;2023-07-31T07:45:29;8.53;;;4.83;;
70312;SDS011;57723;51.698;5.344;2023-07-31T07:47:57;6.83;;;4.40;;
70312;SDS011;57723;51.698;5.344;2023-07-31T07:50:24;4.25;;;3.85;;
70312;SDS011;57723;51.698;5.344;2023-07-31T07:52:49;7.87;;;3.97;;
70312;SDS011;57723;51.698;5.344;2023-07-31T07:55:15;6.20;;;4.33;;
70312;SDS011;57723;51.698;5.344;2023-07-31T07:57:40;6.87;;;4.17;;
70312;SDS011;57723;51.698;5.344;2023-07-31T08:00:06;7.38;;;4.07;;
70312;SDS011;57723;51.698;5.344;2023-07-31T08:02:35;5.65;;;4.15;;
70312;SDS011;57723;51.698;5.344;2023-07-31T08:05:01;6.00;;;4.18;;
70312;SDS011;57723;51.698;5.344;2023-07-31T08:07:26;5.13;;;4.50;;
70312;SDS011;57723;51.698;5.344;2023-07-31T08:09:55;4.63;;;3.73;;
70312;SDS011;57723;51.698;5.344;2023-07-31T08:12:20;5.07;;;4.07;;
70312;SDS011;57723;51.698;5.344;2023-07-31T08:14:46;5.43;;;4.03;;
70312;SDS011;57723;51.698;5.344;2023-07-31T08:17:11;4.77;;;4.37;;
70312;SDS011;57723;51.698;5.344;2023-07-31T08:19:38;4.75;;;4.10;;
70312;SDS011;57723;51.698;5.344;2023-07-31T08:22:11;6.55;;;4.22;;
70312;SDS011;57723;51.698;5.344;2023-07-31T08:24:39;6.07;;;4.38;;
70312;SDS011;57723;51.698;5.344;2023-07-31T08:27:05;6.83;;;4.10;;
70312;SDS011;57723;51.698;5.344;2023-07-31T08:29:31;4.55;;;4.10;;
70312;SDS011;57723;51.698;5.344;2023-07-31T08:31:57;5.83;;;3.80;;
70312;SDS011;57723;51.698;5.344;2023-07-31T08:34:24;4.30;;;3.90;;
70312;SDS011;57723;51.698;5.344;2023-07-31T08:36:50;8.30;;;4.35;;
70312;SDS011;57723;51.698;5.344;2023-07-31T08:39:15;5.07;;;4.57;;
70312;SDS011;57723;51.698;5.344;2023-07-31T08:41:43;4.82;;;3.97;;
70312;SDS011;57723;51.698;5.344;2023-07-31T08:44:12;7.82;;;4.35;;
70312;SDS011;57723;51.698;5.344;2023-07-31T08:46:38;5.00;;;4.60;;
70312;SDS011;57723;51.698;5.344;2023-07-31T08:49:05;7.13;;;4.45;;
70312;SDS011;57723;51.698;5.344;2023-07-31T08:51:34;5.18;;;4.07;;
70312;SDS011;57723;51.698;5.344;2023-07-31T08:54:00;6.82;;;4.53;;
70312;SDS011;57723;51.698;5.344;2023-07-31T08:56:26;4.63;;;4.03;;
70312;SDS011;57723;51.698;5.344;2023-07-31T08:58:52;4.93;;;4.53;;
70312;SDS011;57723;51.698;5.344;2023-07-31T09:01:17;6.20;;;4.70;;
70312;SDS011;57723;51.698;5.344;2023-07-31T09:03:43;4.97;;;4.45;;
70312;SDS011;57723;51.698;5.344;2023-07-31T09:06:09;8.03;;;4.63;;
70312;SDS011;57723;51.698;5.344;2023-07-31T09:08:34;5.18;;;4.28;;
70312;SDS011;57723;51.698;5.344;2023-07-31T09:11:02;6.10;;;4.72;;
70312;SDS011;57723;51.698;5.344;2023-07-31T09:13:30;5.20;;;3.93;;
70312;SDS011;57723;51.698;5.344;2023-07-31T09:15:56;5.15;;;4.30;;
70312;SDS011;57723;51.698;5.344;2023-07-31T09:18:21;4.87;;;3.90;;
70312;SDS011;57723;51.698;5.344;2023-07-31T09:21:00;6.38;;;4.38;;
70312;SDS011;57723;51.698;5.344;2023-07-31T09:23:26;6.18;;;4.38;;
70312;SDS011;57723;51.698;5.344;2023-07-31T09:25:51;6.67;;;4.83;;
70312;SDS011;57723;51.698;5.344;2023-07-31T09:28:16;4.97;;;4.47;;
70312;SDS011;57723;51.698;5.344;2023-07-31T09:30:45;6.63;;;4.25;;
70312;SDS011;57723;51.698;5.344;2023-07-31T09:33:11;6.25;;;4.68;;
70312;SDS011;57723;51.698;5.344;2023-07-31T09:35:36;5.03;;;4.50;;
70312;SDS011;57723;51.698;5.344;2023-07-31T09:38:10;5.13;;;4.50;;
70312;SDS011;57723;51.698;5.344;2023-07-31T09:40:37;6.15;;;4.60;;
70312;SDS011;57723;51.698;5.344;2023-07-31T09:43:03;4.57;;;4.13;;
70312;SDS011;57723;51.698;5.344;2023-07-31T09:45:29;6.22;;;4.78;;
70312;SDS011;57723;51.698;5.344;2023-07-31T09:47:55;5.65;;;4.80;;
70312;SDS011;57723;51.698;5.344;2023-07-31T09:50:21;5.43;;;4.93;;
70312;SDS011;57723;51.698;5.344;2023-07-31T09:52:51;5.95;;;4.80;;
70312;SDS011;57723;51.698;5.344;2023-07-31T09:55:17;7.88;;;4.93;;
70312;SDS011;57723;51.698;5.344;2023-07-31T09:57:47;5.10;;;4.60;;
70312;SDS011;57723;51.698;5.344;2023-07-31T10:00:13;7.00;;;4.97;;
70312;SDS011;57723;51.698;5.344;2023-07-31T10:02:38;5.90;;;4.67;;
70312;SDS011;57723;51.698;5.344;2023-07-31T10:05:04;6.35;;;5.03;;
70312;SDS011;57723;51.698;5.344;2023-07-31T10:07:33;5.40;;;4.55;;
70312;SDS011;57723;51.698;5.344;2023-07-31T10:10:01;6.67;;;5.00;;
70312;SDS011;57723;51.698;5.344;2023-07-31T10:12:37;5.45;;;4.70;;
70312;SDS011;57723;51.698;5.344;2023-07-31T10:15:03;5.70;;;4.65;;
70312;SDS011;57723;51.698;5.344;2023-07-31T10:17:29;5.18;;;4.45;;
70312;SDS011;57723;51.698;5.344;2023-07-31T10:20:03;6.10;;;5.00;;
70312;SDS011;57723;51.698;5.344;2023-07-31T10:22:30;5.40;;;4.57;;
70312;SDS011;57723;51.698;5.344;2023-07-31T10:24:57;7.20;;;4.47;;
70312;SDS011;57723;51.698;5.344;2023-07-31T10:27:23;5.13;;;4.60;;
70312;SDS011;57723;51.698;5.344;2023-07-31T10:29:48;5.73;;;4.33;;
70312;SDS011;57723;51.698;5.344;2023-07-31T10:32:14;5.40;;;4.85;;
70312;SDS011;57723;51.698;5.344;2023-07-31T10:34:40;5.93;;;5.00;;
70312;SDS011;57723;51.698;5.344;2023-07-31T10:37:19;6.32;;;4.55;;
70312;SDS011;57723;51.698;5.344;2023-07-31T10:39:45;6.20;;;4.60;;
70312;SDS011;57723;51.698;5.344;2023-07-31T10:42:19;5.35;;;4.45;;
70312;SDS011;57723;51.698;5.344;2023-07-31T10:44:52;5.57;;;4.65;;
70312;SDS011;57723;51.698;5.344;2023-07-31T10:47:23;5.75;;;4.60;;
70312;SDS011;57723;51.698;5.344;2023-07-31T10:49:49;5.00;;;4.50;;
70312;SDS011;57723;51.698;5.344;2023-07-31T10:52:16;4.73;;;4.27;;
70312;SDS011;57723;51.698;5.344;2023-07-31T10:54:44;5.15;;;4.20;;
70312;SDS011;57723;51.698;5.344;2023-07-31T10:57:20;5.65;;;4.28;;
70312;SDS011;57723;51.698;5.344;2023-07-31T10:59:51;6.13;;;4.60;;
70312;SDS011;57723;51.698;5.344;2023-07-31T11:02:34;6.00;;;4.00;;
70312;SDS011;57723;51.698;5.344;2023-07-31T11:05:06;6.23;;;5.00;;
70312;SDS011;57723;51.698;5.344;2023-07-31T11:07:48;5.95;;;4.53;;
70312;SDS011;57723;51.698;5.344;2023-07-31T11:10:16;5.43;;;4.68;;
70312;SDS011;57723;51.698;5.344;2023-07-31T11:12:47;5.18;;;4.68;;
70312;SDS011;57723;51.698;5.344;2023-07-31T11:15:12;5.50;;;4.88;;
70312;SDS011;57723;51.698;5.344;2023-07-31T11:17:38;4.40;;;4.00;;
70312;SDS011;57723;51.698;5.344;2023-07-31T11:20:04;6.15;;;4.78;;
70312;SDS011;57723;51.698;5.344;2023-07-31T11:22:30;5.37;;;4.87;;
70312;SDS011;57723;51.698;5.344;2023-07-31T11:24:55;5.63;;;4.93;;
70312;SDS011;57723;51.698;5.344;2023-07-31T11:27:27;5.53;;;4.57;;
70312;SDS011;57723;51.698;5.344;2023-07-31T11:29:53;9.10;;;4.80;;
70312;SDS011;57723;51.698;5.344;2023-07-31T11:32:24;5.80;;;4.90;;
70312;SDS011;57723;51.698;5.344;2023-07-31T11:34:54;5.57;;;4.73;;
70312;SDS011;57723;51.698;5.344;2023-07-31T11:37:19;5.63;;;4.90;;
70312;SDS011;57723;51.698;5.344;2023-07-31T11:40:00;5.43;;;4.40;;
70312;SDS011;57723;51.698;5.344;2023-07-31T11:42:29;5.93;;;4.53;;
70312;SDS011;57723;51.698;5.344;2023-07-31T11:44:54;5.57;;;4.45;;
70312;SDS011;57723;51.698;5.344;2023-07-31T11:47:20;6.00;;;4.73;;
70312;SDS011;57723;51.698;5.344;2023-07-31T11:49:53;4.65;;;4.05;;
70312;SDS011;57723;51.698;5.344;2023-07-31T11:52:24;5.65;;;5.07;;
70312;SDS011;57723;51.698;5.344;2023-07-31T11:54:50;4.55;;;4.15;;
70312;SDS011;57723;51.698;5.344;2023-07-31T11:57:16;4.77;;;4.37;;
70312;SDS011;57723;51.698;5.344;2023-07-31T11:59:42;5.13;;;4.35;;
70312;SDS011;57723;51.698;5.344;2023-07-31T12:02:08;8.38;;;4.85;;
70312;SDS011;57723;51.698;5.344;2023-07-31T12:04:33;6.53;;;4.53;;
70312;SDS011;57723;51.698;5.344;2023-07-31T12:07:00;6.33;;;5.17;;
70312;SDS011;57723;51.698;5.344;2023-07-31T12:09:25;6.22;;;4.75;;
70312;SDS011;57723;51.698;5.344;2023-07-31T12:11:53;5.38;;;4.35;;
70312;SDS011;57723;51.698;5.344;2023-07-31T12:14:23;6.00;;;4.50;;
70312;SDS011;57723;51.698;5.344;2023-07-31T12:16:52;5.45;;;4.95;;
70312;SDS011;57723;51.698;5.344;2023-07-31T12:19:21;6.30;;;5.13;;
70312;SDS011;57723;51.698;5.344;2023-07-31T12:21:49;5.57;;;5.00;;
70312;SDS011;57723;51.698;5.344;2023-07-31T12:24:17;5.20;;;4.70;;
70312;SDS011;57723;51.698;5.344;2023-07-31T12:26:45;6.00;;;4.40;;
70312;SDS011;57723;51.698;5.344;2023-07-31T12:29:10;4.78;;;4.38;;
70312;SDS011;57723;51.698;5.344;2023-07-31T12:31:35;6.20;;;4.80;;
70312;SDS011;57723;51.698;5.344;2023-07-31T12:34:13;6.70;;;4.68;;
70312;SDS011;57723;51.698;5.344;2023-07-31T12:36:39;5.03;;;4.53;;
70312;SDS011;57723;51.698;5.344;2023-07-31T12:39:05;5.30;;;4.80;;
70312;SDS011;57723;51.698;5.344;2023-07-31T12:41:30;4.90;;;4.40;;
70312;SDS011;57723;51.698;5.344;2023-07-31T12:43:55;5.00;;;4.50;;
70312;SDS011;57723;51.698;5.344;2023-07-31T12:46:21;4.75;;;4.25;;
70312;SDS011;57723;51.698;5.344;2023-07-31T12:48:46;5.40;;;3.90;;
70312;SDS011;57723;51.698;5.344;2023-07-31T12:51:12;7.73;;;5.13;;
70312;SDS011;57723;51.698;5.344;2023-07-31T12:53:39;7.45;;;4.72;;
70312;SDS011;57723;51.698;5.344;2023-07-31T12:56:06;5.90;;;4.43;;
70312;SDS011;57723;51.698;5.344;2023-07-31T12:58:32;5.28;;;4.68;;
70312;SDS011;57723;51.698;5.344;2023-07-31T13:00:57;5.43;;;4.70;;
70312;SDS011;57723;51.698;5.344;2023-07-31T13:03:23;14.70;;;5.50;;
70312;SDS011;57723;51.698;5.344;2023-07-31T13:05:51;6.63;;;4.43;;
70312;SDS011;57723;51.698;5.344;2023-07-31T13:08:17;6.38;;;5.47;;
70312;SDS011;57723;51.698;5.344;2023-07-31T13:10:43;5.30;;;4.33;;
70312;SDS011;57723;51.698;5.344;2023-07-31T13:13:10;8.77;;;4.70;;
70312;SDS011;57723;51.698;5.344;2023-07-31T13:15:35;5.77;;;4.47;;
70312;SDS011;57723;51.698;5.344;2023-07-31T13:18:03;6.25;;;4.35;;
70312;SDS011;57723;51.698;5.344;2023-07-31T13:20:29;5.25;;;4.70;;
70312;SDS011;57723;51.698;5.344;2023-07-31T13:22:56;6.57;;;4.67;;
70312;SDS011;57723;51.698;5.344;2023-07-31T13:25:22;5.32;;;4.53;;
70312;SDS011;57723;51.698;5.344;2023-07-31T13:27:47;4.87;;;4.30;;
70312;SDS011;57723;51.698;5.344;2023-07-31T13:30:13;6.17;;;4.37;;
70312;SDS011;57723;51.698;5.344;2023-07-31T13:32:41;5.40;;;4.90;;
70312;SDS011;57723;51.698;5.344;2023-07-31T13:35:07;7.57;;;4.60;;
70312;SDS011;57723;51.698;5.344;2023-07-31T13:37:33;6.63;;;4.60;;
70312;SDS011;57723;51.698;5.344;2023-07-31T13:40:01;6.60;;;5.00;;
70312;SDS011;57723;51.698;5.344;2023-07-31T13:42:26;5.28;;;4.78;;
70312;SDS011;57723;51.698;5.344;2023-07-31T13:44:53;6.75;;;5.05;;
70312;SDS011;57723;51.698;5.344;2023-07-31T13:47:21;5.30;;;4.80;;
70312;SDS011;57723;51.698;5.344;2023-07-31T13:49:46;7.33;;;4.97;;
70312;SDS011;57723;51.698;5.344;2023-07-31T13:52:12;7.35;;;4.88;;
70312;SDS011;57723;51.698;5.344;2023-07-31T13:54:40;7.32;;;5.50;;
70312;SDS011;57723;51.698;5.344;2023-07-31T13:57:13;5.93;;;4.20;;
70312;SDS011;57723;51.698;5.344;2023-07-31T13:59:38;6.57;;;4.80;;
70312;SDS011;57723;51.698;5.344;2023-07-31T14:02:04;7.20;;;5.10;;
70312;SDS011;57723;51.698;5.344;2023-07-31T14:04:29;6.90;;;5.27;;
70312;SDS011;57723;51.698;5.344;2023-07-31T14:07:00;6.07;;;4.60;;
70312;SDS011;57723;51.698;5.344;2023-07-31T14:09:28;7.13;;;5.10;;
70312;SDS011;57723;51.698;5.344;2023-07-31T14:12:00;7.40;;;4.70;;
70312;SDS011;57723;51.698;5.344;2023-07-31T14:14:27;6.60;;;4.88;;
70312;SDS011;57723;51.698;5.344;2023-07-31T14:16:53;6.03;;;5.10;;
70312;SDS011;57723;51.698;5.344;2023-07-31T14:19:23;8.93;;;4.80;;
70312;SDS011;57723;51.698;5.344;2023-07-31T14:21:52;6.35;;;5.20;;
70312;SDS011;57723;51.698;5.344;2023-07-31T14:24:21;8.85;;;5.18;;
70312;SDS011;57723;51.698;5.344;2023-07-31T14:26:46;5.80;;;5.20;;
70312;SDS011;57723;51.698;5.344;2023-07-31T14:29:17;9.23;;;4.67;;
70312;SDS011;57723;51.698;5.344;2023-07-31T14:31:44;8.07;;;5.28;;
70312;SDS011;57723;51.698;5.344;2023-07-31T14:34:10;7.50;;;5.28;;
70312;SDS011;57723;51.698;5.344;2023-07-31T14:36:35;12.87;;;4.67;;
70312;SDS011;57723;51.698;5.344;2023-07-31T14:39:00;11.63;;;5.50;;
70312;SDS011;57723;51.698;5.344;2023-07-31T14:41:27;8.35;;;5.55;;
70312;SDS011;57723;51.698;5.344;2023-07-31T14:43:52;9.60;;;5.40;;
70312;SDS011;57723;51.698;5.344;2023-07-31T14:46:18;7.70;;;5.00;;
70312;SDS011;57723;51.698;5.344;2023-07-31T14:48:43;7.35;;;4.75;;
70312;SDS011;57723;51.698;5.344;2023-07-31T14:51:08;5.53;;;4.93;;
70312;SDS011;57723;51.698;5.344;2023-07-31T14:53:34;6.20;;;4.73;;
70312;SDS011;57723;51.698;5.344;2023-07-31T14:55:59;7.07;;;2.33;;